sensor_id;sensor_type;location;lat;lon;timestamp;P1;durP1;ratioP1;P2;durP2;ratioP2
7047;SDS011;3565;53.254;10.352;2024-02-04T00:01:04;12.30;;;2.47;;
7047;SDS011;3565;53.254;10.352;2024-02-04T00:06:10;11.00;;;3.13;;
7047;SDS011;3565;53.254;10.352;2024-02-04T00:11:16;7.60;;;2.40;;
7047;SDS011;3565;53.254;10.352;2024-02-04T00:13:47;11.73;;;3.77;;
7047;SDS011;3565;53.254;10.352;2024-02-04T00:18:53;13.57;;;2.80;;
7047;SDS011;3565;53.254;10.352;2024-02-04T00:21:22;10.40;;;3.20;;
7047;SDS011;3565;53.254;10.352;2024-02-04T00:23:51;11.23;;;2.90;;
7047;SDS011;3565;53.254;10.352;2024-02-04T00:28:57;13.53;;;3.00;;
7047;SDS011;3565;53.254;10.352;2024-02-04T00:31:26;9.70;;;3.03;;
7047;SDS011;3565;53.254;10.352;2024-02-04T00:33:54;8.90;;;2.50;;
7047;SDS011;3565;53.254;10.352;2024-02-04T00:39:00;10.93;;;2.90;;
7047;SDS011;3565;53.254;10.352;2024-02-04T00:44:07;14.00;;;3.00;;
7047;SDS011;3565;53.254;10.352;2024-02-04T00:49:13;11.87;;;3.27;;
7047;SDS011;3565;53.254;10.352;2024-02-04T00:51:43;10.67;;;2.60;;
7047;SDS011;3565;53.254;10.352;2024-02-04T00:54:12;10.67;;;2.80;;
7047;SDS011;3565;53.254;10.352;2024-02-04T00:56:41;10.47;;;3.00;;
7047;SDS011;3565;53.254;10.352;2024-02-04T00:59:19;11.07;;;2.90;;
7047;SDS011;3565;53.254;10.352;2024-02-04T01:01:48;12.07;;;3.17;;
7047;SDS011;3565;53.254;10.352;2024-02-04T01:04:17;7.53;;;2.57;;
7047;SDS011;3565;53.254;10.352;2024-02-04T01:06:46;6.20;;;2.50;;
7047;SDS011;3565;53.254;10.352;2024-02-04T01:09:15;13.13;;;2.90;;
7047;SDS011;3565;53.254;10.352;2024-02-04T01:11:44;7.07;;;2.80;;
7047;SDS011;3565;53.254;10.352;2024-02-04T01:14:13;12.07;;;3.13;;
7047;SDS011;3565;53.254;10.352;2024-02-04T01:19:19;7.23;;;2.73;;
7047;SDS011;3565;53.254;10.352;2024-02-04T01:21:48;10.77;;;2.80;;
7047;SDS011;3565;53.254;10.352;2024-02-04T01:24:17;6.63;;;2.30;;
7047;SDS011;3565;53.254;10.352;2024-02-04T01:26:46;13.30;;;2.97;;
7047;SDS011;3565;53.254;10.352;2024-02-04T01:31:52;6.80;;;2.40;;
7047;SDS011;3565;53.254;10.352;2024-02-04T01:34:21;9.77;;;2.27;;
7047;SDS011;3565;53.254;10.352;2024-02-04T01:36:50;7.83;;;3.00;;
7047;SDS011;3565;53.254;10.352;2024-02-04T01:41:56;7.37;;;2.83;;
7047;SDS011;3565;53.254;10.352;2024-02-04T01:44:25;13.30;;;2.90;;
7047;SDS011;3565;53.254;10.352;2024-02-04T01:49:41;6.73;;;2.57;;
7047;SDS011;3565;53.254;10.352;2024-02-04T01:52:11;11.73;;;2.83;;
7047;SDS011;3565;53.254;10.352;2024-02-04T01:54:40;10.33;;;3.10;;
7047;SDS011;3565;53.254;10.352;2024-02-04T01:59:48;9.93;;;2.80;;
7047;SDS011;3565;53.254;10.352;2024-02-04T02:04:59;7.73;;;2.60;;
7047;SDS011;3565;53.254;10.352;2024-02-04T02:10:06;10.43;;;2.63;;
7047;SDS011;3565;53.254;10.352;2024-02-04T02:12:38;10.43;;;2.93;;
7047;SDS011;3565;53.254;10.352;2024-02-04T02:15:11;8.70;;;2.60;;
7047;SDS011;3565;53.254;10.352;2024-02-04T02:17:52;11.10;;;2.47;;
7047;SDS011;3565;53.254;10.352;2024-02-04T02:20:32;9.53;;;2.63;;
7047;SDS011;3565;53.254;10.352;2024-02-04T02:23:06;6.67;;;2.80;;
7047;SDS011;3565;53.254;10.352;2024-02-04T02:25:44;13.80;;;2.70;;
7047;SDS011;3565;53.254;10.352;2024-02-04T02:30:53;11.07;;;2.80;;
7047;SDS011;3565;53.254;10.352;2024-02-04T02:33:22;8.10;;;2.80;;
7047;SDS011;3565;53.254;10.352;2024-02-04T02:35:53;11.43;;;2.87;;
7047;SDS011;3565;53.254;10.352;2024-02-04T02:41:04;14.40;;;3.40;;
7047;SDS011;3565;53.254;10.352;2024-02-04T02:43:33;10.33;;;2.73;;
7047;SDS011;3565;53.254;10.352;2024-02-04T02:46:03;12.67;;;2.90;;
7047;SDS011;3565;53.254;10.352;2024-02-04T02:51:09;11.33;;;2.73;;
7047;SDS011;3565;53.254;10.352;2024-02-04T02:53:38;8.07;;;2.77;;
7047;SDS011;3565;53.254;10.352;2024-02-04T02:56:07;7.80;;;2.70;;
7047;SDS011;3565;53.254;10.352;2024-02-04T02:58:46;9.73;;;3.07;;
7047;SDS011;3565;53.254;10.352;2024-02-04T03:01:15;8.80;;;2.53;;
7047;SDS011;3565;53.254;10.352;2024-02-04T03:03:44;15.30;;;3.20;;
7047;SDS011;3565;53.254;10.352;2024-02-04T03:08:50;9.27;;;3.10;;
7047;SDS011;3565;53.254;10.352;2024-02-04T03:11:19;6.87;;;2.70;;
7047;SDS011;3565;53.254;10.352;2024-02-04T03:13:48;11.13;;;3.17;;
7047;SDS011;3565;53.254;10.352;2024-02-04T03:18:55;6.27;;;2.90;;
7047;SDS011;3565;53.254;10.352;2024-02-04T03:21:24;10.10;;;3.57;;
7047;SDS011;3565;53.254;10.352;2024-02-04T03:23:53;8.87;;;3.03;;
7047;SDS011;3565;53.254;10.352;2024-02-04T03:28:59;5.03;;;3.00;;
7047;SDS011;3565;53.254;10.352;2024-02-04T03:31:29;10.97;;;2.97;;
7047;SDS011;3565;53.254;10.352;2024-02-04T03:33:58;8.13;;;3.20;;
7047;SDS011;3565;53.254;10.352;2024-02-04T03:39:04;10.70;;;3.37;;
7047;SDS011;3565;53.254;10.352;2024-02-04T03:41:33;7.90;;;3.23;;
7047;SDS011;3565;53.254;10.352;2024-02-04T03:44:02;8.23;;;3.73;;
7047;SDS011;3565;53.254;10.352;2024-02-04T03:49:09;11.40;;;3.80;;
7047;SDS011;3565;53.254;10.352;2024-02-04T03:51:38;9.03;;;3.80;;
7047;SDS011;3565;53.254;10.352;2024-02-04T03:54:07;8.83;;;3.70;;
7047;SDS011;3565;53.254;10.352;2024-02-04T03:59:13;9.43;;;3.47;;
7047;SDS011;3565;53.254;10.352;2024-02-04T04:01:47;7.40;;;3.63;;
7047;SDS011;3565;53.254;10.352;2024-02-04T04:04:16;9.60;;;4.07;;
7047;SDS011;3565;53.254;10.352;2024-02-04T04:06:45;8.23;;;3.27;;
7047;SDS011;3565;53.254;10.352;2024-02-04T04:11:52;11.57;;;3.53;;
7047;SDS011;3565;53.254;10.352;2024-02-04T04:14:21;9.97;;;4.07;;
7047;SDS011;3565;53.254;10.352;2024-02-04T04:16:51;13.17;;;4.83;;
7047;SDS011;3565;53.254;10.352;2024-02-04T04:21:58;14.47;;;4.27;;
7047;SDS011;3565;53.254;10.352;2024-02-04T04:24:27;9.97;;;4.37;;
7047;SDS011;3565;53.254;10.352;2024-02-04T04:26:56;9.50;;;4.43;;
7047;SDS011;3565;53.254;10.352;2024-02-04T04:32:02;12.77;;;4.93;;
7047;SDS011;3565;53.254;10.352;2024-02-04T04:34:33;10.83;;;4.80;;
7047;SDS011;3565;53.254;10.352;2024-02-04T04:39:39;10.10;;;5.27;;
7047;SDS011;3565;53.254;10.352;2024-02-04T04:42:08;14.50;;;4.93;;
7047;SDS011;3565;53.254;10.352;2024-02-04T04:47:15;10.60;;;6.27;;
7047;SDS011;3565;53.254;10.352;2024-02-04T04:49:44;13.23;;;6.70;;
7047;SDS011;3565;53.254;10.352;2024-02-04T04:54:50;13.17;;;7.43;;
7047;SDS011;3565;53.254;10.352;2024-02-04T04:57:19;17.77;;;7.70;;
7047;SDS011;3565;53.254;10.352;2024-02-04T05:02:25;12.90;;;7.93;;
7047;SDS011;3565;53.254;10.352;2024-02-04T05:04:54;14.57;;;7.87;;
7047;SDS011;3565;53.254;10.352;2024-02-04T05:10:00;15.13;;;7.90;;
7047;SDS011;3565;53.254;10.352;2024-02-04T05:12:29;20.63;;;8.33;;
7047;SDS011;3565;53.254;10.352;2024-02-04T05:14:58;16.53;;;7.67;;
7047;SDS011;3565;53.254;10.352;2024-02-04T05:20:05;15.40;;;7.47;;
7047;SDS011;3565;53.254;10.352;2024-02-04T05:22:36;20.50;;;8.23;;
7047;SDS011;3565;53.254;10.352;2024-02-04T05:25:18;15.73;;;6.70;;
7047;SDS011;3565;53.254;10.352;2024-02-04T05:30:24;15.23;;;7.00;;
7047;SDS011;3565;53.254;10.352;2024-02-04T05:32:53;16.60;;;6.43;;
7047;SDS011;3565;53.254;10.352;2024-02-04T05:35:22;11.47;;;5.80;;
7047;SDS011;3565;53.254;10.352;2024-02-04T05:38:00;15.13;;;6.87;;
7047;SDS011;3565;53.254;10.352;2024-02-04T05:43:07;13.43;;;6.37;;
7047;SDS011;3565;53.254;10.352;2024-02-04T05:45:37;11.03;;;5.60;;
7047;SDS011;3565;53.254;10.352;2024-02-04T05:48:07;13.03;;;6.00;;
7047;SDS011;3565;53.254;10.352;2024-02-04T05:53:13;15.40;;;5.73;;
7047;SDS011;3565;53.254;10.352;2024-02-04T05:55:42;15.40;;;4.93;;
7047;SDS011;3565;53.254;10.352;2024-02-04T06:00:49;15.37;;;5.53;;
7047;SDS011;3565;53.254;10.352;2024-02-04T06:03:18;13.40;;;5.10;;
7047;SDS011;3565;53.254;10.352;2024-02-04T06:05:47;11.00;;;5.20;;
7047;SDS011;3565;53.254;10.352;2024-02-04T06:08:25;13.07;;;5.80;;
7047;SDS011;3565;53.254;10.352;2024-02-04T06:10:54;13.07;;;5.50;;
7047;SDS011;3565;53.254;10.352;2024-02-04T06:16:00;9.83;;;5.43;;
7047;SDS011;3565;53.254;10.352;2024-02-04T06:21:07;13.00;;;4.87;;
7047;SDS011;3565;53.254;10.352;2024-02-04T06:23:37;16.20;;;5.37;;
7047;SDS011;3565;53.254;10.352;2024-02-04T06:26:06;10.23;;;5.20;;
7047;SDS011;3565;53.254;10.352;2024-02-04T06:31:12;8.57;;;4.47;;
7047;SDS011;3565;53.254;10.352;2024-02-04T06:33:41;13.77;;;4.47;;
7047;SDS011;3565;53.254;10.352;2024-02-04T06:38:47;7.50;;;3.83;;
7047;SDS011;3565;53.254;10.352;2024-02-04T06:41:16;11.63;;;4.53;;
7047;SDS011;3565;53.254;10.352;2024-02-04T06:43:45;10.90;;;3.90;;
7047;SDS011;3565;53.254;10.352;2024-02-04T06:48:51;11.53;;;3.70;;
7047;SDS011;3565;53.254;10.352;2024-02-04T06:51:21;9.27;;;3.93;;
7047;SDS011;3565;53.254;10.352;2024-02-04T06:53:50;9.17;;;3.40;;
7047;SDS011;3565;53.254;10.352;2024-02-04T06:58:56;10.10;;;3.50;;
7047;SDS011;3565;53.254;10.352;2024-02-04T07:01:25;12.37;;;3.30;;
7047;SDS011;3565;53.254;10.352;2024-02-04T07:03:54;7.67;;;3.40;;
7047;SDS011;3565;53.254;10.352;2024-02-04T07:09:00;9.70;;;3.27;;
7047;SDS011;3565;53.254;10.352;2024-02-04T07:11:30;9.57;;;3.83;;
7047;SDS011;3565;53.254;10.352;2024-02-04T07:13:58;6.67;;;3.17;;
7047;SDS011;3565;53.254;10.352;2024-02-04T07:19:05;11.57;;;3.20;;
7047;SDS011;3565;53.254;10.352;2024-02-04T07:21:34;9.97;;;3.33;;
7047;SDS011;3565;53.254;10.352;2024-02-04T07:24:03;13.50;;;3.37;;
7047;SDS011;3565;53.254;10.352;2024-02-04T07:29:10;6.13;;;2.57;;
7047;SDS011;3565;53.254;10.352;2024-02-04T07:31:41;7.53;;;2.97;;
7047;SDS011;3565;53.254;10.352;2024-02-04T07:34:20;5.83;;;2.50;;
7047;SDS011;3565;53.254;10.352;2024-02-04T07:36:49;6.47;;;2.70;;
7047;SDS011;3565;53.254;10.352;2024-02-04T07:39:18;7.03;;;2.50;;
7047;SDS011;3565;53.254;10.352;2024-02-04T07:41:57;6.00;;;2.90;;
7047;SDS011;3565;53.254;10.352;2024-02-04T07:44:26;7.87;;;3.17;;
7047;SDS011;3565;53.254;10.352;2024-02-04T07:46:55;12.47;;;3.23;;
7047;SDS011;3565;53.254;10.352;2024-02-04T07:52:02;11.27;;;2.83;;
7047;SDS011;3565;53.254;10.352;2024-02-04T07:54:31;7.47;;;2.87;;
7047;SDS011;3565;53.254;10.352;2024-02-04T07:57:00;7.20;;;3.10;;
7047;SDS011;3565;53.254;10.352;2024-02-04T08:02:06;11.13;;;2.80;;
7047;SDS011;3565;53.254;10.352;2024-02-04T08:04:35;7.97;;;2.80;;
7047;SDS011;3565;53.254;10.352;2024-02-04T08:07:06;10.73;;;3.00;;
7047;SDS011;3565;53.254;10.352;2024-02-04T08:12:12;14.17;;;3.77;;
7047;SDS011;3565;53.254;10.352;2024-02-04T08:14:41;9.57;;;3.67;;
7047;SDS011;3565;53.254;10.352;2024-02-04T08:17:10;7.27;;;3.17;;
7047;SDS011;3565;53.254;10.352;2024-02-04T08:22:16;18.17;;;4.10;;
7047;SDS011;3565;53.254;10.352;2024-02-04T08:24:46;10.77;;;4.30;;
7047;SDS011;3565;53.254;10.352;2024-02-04T08:29:52;9.87;;;3.10;;
7047;SDS011;3565;53.254;10.352;2024-02-04T08:32:21;9.10;;;3.87;;
7047;SDS011;3565;53.254;10.352;2024-02-04T08:34:51;7.40;;;3.83;;
7047;SDS011;3565;53.254;10.352;2024-02-04T08:39:57;9.87;;;4.00;;
7047;SDS011;3565;53.254;10.352;2024-02-04T08:42:27;9.33;;;3.50;;
7047;SDS011;3565;53.254;10.352;2024-02-04T08:44:56;10.27;;;4.20;;
7047;SDS011;3565;53.254;10.352;2024-02-04T08:50:02;10.87;;;3.90;;
7047;SDS011;3565;53.254;10.352;2024-02-04T08:52:32;8.43;;;3.63;;
7047;SDS011;3565;53.254;10.352;2024-02-04T08:55:01;12.67;;;4.43;;
7047;SDS011;3565;53.254;10.352;2024-02-04T09:00:09;9.57;;;4.30;;
7047;SDS011;3565;53.254;10.352;2024-02-04T09:02:40;12.43;;;4.00;;
7047;SDS011;3565;53.254;10.352;2024-02-04T09:05:09;11.33;;;4.03;;
7047;SDS011;3565;53.254;10.352;2024-02-04T09:10:15;8.37;;;4.30;;
7047;SDS011;3565;53.254;10.352;2024-02-04T09:12:44;10.30;;;4.77;;
7047;SDS011;3565;53.254;10.352;2024-02-04T09:15:13;13.17;;;4.90;;
7047;SDS011;3565;53.254;10.352;2024-02-04T09:20:19;9.30;;;4.50;;
7047;SDS011;3565;53.254;10.352;2024-02-04T09:22:48;10.00;;;4.47;;
7047;SDS011;3565;53.254;10.352;2024-02-04T09:25:17;10.70;;;4.67;;
7047;SDS011;3565;53.254;10.352;2024-02-04T09:27:46;8.57;;;4.10;;
7047;SDS011;3565;53.254;10.352;2024-02-04T09:30:16;13.87;;;4.67;;
7047;SDS011;3565;53.254;10.352;2024-02-04T09:32:45;10.40;;;4.87;;
7047;SDS011;3565;53.254;10.352;2024-02-04T09:35:14;10.67;;;4.93;;
7047;SDS011;3565;53.254;10.352;2024-02-04T09:37:43;10.13;;;4.83;;
7047;SDS011;3565;53.254;10.352;2024-02-04T09:40:13;9.57;;;4.77;;
7047;SDS011;3565;53.254;10.352;2024-02-04T09:45:20;9.50;;;4.80;;
7047;SDS011;3565;53.254;10.352;2024-02-04T09:47:50;11.90;;;4.97;;
7047;SDS011;3565;53.254;10.352;2024-02-04T09:50:21;8.93;;;4.47;;
7047;SDS011;3565;53.254;10.352;2024-02-04T09:52:51;13.67;;;5.00;;
7047;SDS011;3565;53.254;10.352;2024-02-04T09:55:31;12.13;;;5.50;;
7047;SDS011;3565;53.254;10.352;2024-02-04T09:58:01;11.40;;;4.20;;
7047;SDS011;3565;53.254;10.352;2024-02-04T10:00:31;7.63;;;4.17;;
7047;SDS011;3565;53.254;10.352;2024-02-04T10:03:02;9.83;;;4.00;;
7047;SDS011;3565;53.254;10.352;2024-02-04T10:08:10;9.77;;;3.83;;
7047;SDS011;3565;53.254;10.352;2024-02-04T10:10:39;12.73;;;3.87;;
7047;SDS011;3565;53.254;10.352;2024-02-04T10:13:17;9.97;;;4.03;;
7047;SDS011;3565;53.254;10.352;2024-02-04T10:15:47;8.60;;;3.53;;
7047;SDS011;3565;53.254;10.352;2024-02-04T10:18:16;9.27;;;3.53;;
7047;SDS011;3565;53.254;10.352;2024-02-04T10:20:45;12.70;;;3.40;;
7047;SDS011;3565;53.254;10.352;2024-02-04T10:25:57;6.07;;;3.00;;
7047;SDS011;3565;53.254;10.352;2024-02-04T10:28:27;8.80;;;2.97;;
7047;SDS011;3565;53.254;10.352;2024-02-04T10:30:56;8.83;;;3.60;;
7047;SDS011;3565;53.254;10.352;2024-02-04T10:36:03;10.23;;;3.30;;
7047;SDS011;3565;53.254;10.352;2024-02-04T10:38:33;10.90;;;3.00;;
7047;SDS011;3565;53.254;10.352;2024-02-04T10:41:02;11.33;;;3.33;;
7047;SDS011;3565;53.254;10.352;2024-02-04T10:46:09;10.40;;;3.10;;
7047;SDS011;3565;53.254;10.352;2024-02-04T10:48:41;9.93;;;3.30;;
7047;SDS011;3565;53.254;10.352;2024-02-04T10:51:19;10.77;;;3.10;;
7047;SDS011;3565;53.254;10.352;2024-02-04T10:53:55;12.17;;;3.63;;
7047;SDS011;3565;53.254;10.352;2024-02-04T10:59:07;7.03;;;3.23;;
7047;SDS011;3565;53.254;10.352;2024-02-04T11:04:16;8.47;;;3.20;;
7047;SDS011;3565;53.254;10.352;2024-02-04T11:06:46;8.37;;;3.07;;
7047;SDS011;3565;53.254;10.352;2024-02-04T11:09:17;11.33;;;3.37;;
7047;SDS011;3565;53.254;10.352;2024-02-04T11:11:47;7.57;;;2.93;;
7047;SDS011;3565;53.254;10.352;2024-02-04T11:14:19;13.57;;;3.20;;
7047;SDS011;3565;53.254;10.352;2024-02-04T11:17:03;12.13;;;3.30;;
7047;SDS011;3565;53.254;10.352;2024-02-04T11:20:01;9.17;;;3.03;;
7047;SDS011;3565;53.254;10.352;2024-02-04T11:22:47;12.90;;;3.40;;
7047;SDS011;3565;53.254;10.352;2024-02-04T11:28:13;9.53;;;2.90;;
7047;SDS011;3565;53.254;10.352;2024-02-04T11:30:46;9.60;;;3.30;;
7047;SDS011;3565;53.254;10.352;2024-02-04T11:33:18;10.70;;;3.40;;
7047;SDS011;3565;53.254;10.352;2024-02-04T11:35:58;9.63;;;3.00;;
7047;SDS011;3565;53.254;10.352;2024-02-04T11:41:07;11.03;;;2.80;;
7047;SDS011;3565;53.254;10.352;2024-02-04T11:43:37;9.20;;;2.73;;
7047;SDS011;3565;53.254;10.352;2024-02-04T11:46:17;7.77;;;2.87;;
7047;SDS011;3565;53.254;10.352;2024-02-04T11:48:51;9.57;;;3.90;;
7047;SDS011;3565;53.254;10.352;2024-02-04T11:51:22;9.80;;;3.73;;
7047;SDS011;3565;53.254;10.352;2024-02-04T11:54:00;8.67;;;3.10;;
7047;SDS011;3565;53.254;10.352;2024-02-04T11:56:31;10.90;;;3.17;;
7047;SDS011;3565;53.254;10.352;2024-02-04T11:59:01;5.07;;;2.73;;
7047;SDS011;3565;53.254;10.352;2024-02-04T12:04:09;9.63;;;3.27;;
7047;SDS011;3565;53.254;10.352;2024-02-04T12:06:40;11.07;;;2.93;;
7047;SDS011;3565;53.254;10.352;2024-02-04T12:09:10;9.47;;;3.00;;
7047;SDS011;3565;53.254;10.352;2024-02-04T12:11:40;8.17;;;3.10;;
7047;SDS011;3565;53.254;10.352;2024-02-04T12:14:09;7.73;;;3.20;;
7047;SDS011;3565;53.254;10.352;2024-02-04T12:16:48;10.33;;;2.80;;
7047;SDS011;3565;53.254;10.352;2024-02-04T12:19:18;7.27;;;2.40;;
7047;SDS011;3565;53.254;10.352;2024-02-04T12:24:24;8.20;;;3.20;;
7047;SDS011;3565;53.254;10.352;2024-02-04T12:26:54;10.17;;;3.17;;
7047;SDS011;3565;53.254;10.352;2024-02-04T12:29:23;8.70;;;3.13;;
7047;SDS011;3565;53.254;10.352;2024-02-04T12:31:58;9.37;;;2.90;;
7047;SDS011;3565;53.254;10.352;2024-02-04T12:34:27;8.20;;;2.90;;
7047;SDS011;3565;53.254;10.352;2024-02-04T12:39:35;9.90;;;3.23;;
7047;SDS011;3565;53.254;10.352;2024-02-04T12:42:05;8.13;;;3.00;;
7047;SDS011;3565;53.254;10.352;2024-02-04T12:47:12;9.93;;;2.70;;
7047;SDS011;3565;53.254;10.352;2024-02-04T12:49:43;8.20;;;3.00;;
7047;SDS011;3565;53.254;10.352;2024-02-04T12:54:51;10.87;;;2.90;;
7047;SDS011;3565;53.254;10.352;2024-02-04T12:57:25;8.33;;;3.20;;
7047;SDS011;3565;53.254;10.352;2024-02-04T13:00:03;7.73;;;2.83;;
7047;SDS011;3565;53.254;10.352;2024-02-04T13:05:22;10.77;;;2.53;;
7047;SDS011;3565;53.254;10.352;2024-02-04T13:07:53;5.33;;;2.47;;
7047;SDS011;3565;53.254;10.352;2024-02-04T13:10:24;8.97;;;3.03;;
7047;SDS011;3565;53.254;10.352;2024-02-04T13:12:59;8.87;;;2.97;;
7047;SDS011;3565;53.254;10.352;2024-02-04T13:18:07;10.30;;;3.03;;
7047;SDS011;3565;53.254;10.352;2024-02-04T13:23:15;9.57;;;2.67;;
7047;SDS011;3565;53.254;10.352;2024-02-04T13:25:44;8.77;;;2.70;;
7047;SDS011;3565;53.254;10.352;2024-02-04T13:28:15;6.40;;;2.43;;
7047;SDS011;3565;53.254;10.352;2024-02-04T13:30:44;8.57;;;2.87;;
7047;SDS011;3565;53.254;10.352;2024-02-04T13:33:15;8.47;;;2.57;;
7047;SDS011;3565;53.254;10.352;2024-02-04T13:38:21;9.57;;;3.00;;
7047;SDS011;3565;53.254;10.352;2024-02-04T13:40:50;12.67;;;3.47;;
7047;SDS011;3565;53.254;10.352;2024-02-04T13:43:19;4.73;;;2.30;;
7047;SDS011;3565;53.254;10.352;2024-02-04T13:48:25;8.33;;;3.27;;
7047;SDS011;3565;53.254;10.352;2024-02-04T13:50:54;7.50;;;2.67;;
7047;SDS011;3565;53.254;10.352;2024-02-04T13:56:01;9.03;;;2.93;;
7047;SDS011;3565;53.254;10.352;2024-02-04T13:58:30;6.87;;;2.87;;
7047;SDS011;3565;53.254;10.352;2024-02-04T14:03:36;10.17;;;3.13;;
7047;SDS011;3565;53.254;10.352;2024-02-04T14:06:05;5.97;;;2.60;;
7047;SDS011;3565;53.254;10.352;2024-02-04T14:08:35;8.10;;;3.03;;
7047;SDS011;3565;53.254;10.352;2024-02-04T14:11:05;6.90;;;2.50;;
7047;SDS011;3565;53.254;10.352;2024-02-04T14:16:11;9.97;;;2.67;;
7047;SDS011;3565;53.254;10.352;2024-02-04T14:18:40;6.70;;;2.20;;
7047;SDS011;3565;53.254;10.352;2024-02-04T14:21:11;9.17;;;3.20;;
7047;SDS011;3565;53.254;10.352;2024-02-04T14:26:18;4.27;;;2.33;;
7047;SDS011;3565;53.254;10.352;2024-02-04T14:28:48;6.97;;;2.60;;
7047;SDS011;3565;53.254;10.352;2024-02-04T14:31:17;7.23;;;2.60;;
7047;SDS011;3565;53.254;10.352;2024-02-04T14:33:46;5.87;;;2.70;;
7047;SDS011;3565;53.254;10.352;2024-02-04T14:38:52;9.60;;;2.60;;
7047;SDS011;3565;53.254;10.352;2024-02-04T14:43:58;4.17;;;2.20;;
7047;SDS011;3565;53.254;10.352;2024-02-04T14:46:27;8.20;;;2.40;;
7047;SDS011;3565;53.254;10.352;2024-02-04T14:48:56;8.73;;;2.40;;
7047;SDS011;3565;53.254;10.352;2024-02-04T14:51:34;7.73;;;2.73;;
7047;SDS011;3565;53.254;10.352;2024-02-04T14:54:15;7.00;;;2.40;;
7047;SDS011;3565;53.254;10.352;2024-02-04T14:56:45;9.40;;;2.90;;
7047;SDS011;3565;53.254;10.352;2024-02-04T14:59:17;4.93;;;2.57;;
7047;SDS011;3565;53.254;10.352;2024-02-04T15:04:23;6.80;;;2.70;;
7047;SDS011;3565;53.254;10.352;2024-02-04T15:06:52;5.80;;;2.60;;
7047;SDS011;3565;53.254;10.352;2024-02-04T15:09:22;9.67;;;2.73;;
7047;SDS011;3565;53.254;10.352;2024-02-04T15:11:52;4.67;;;2.60;;
7047;SDS011;3565;53.254;10.352;2024-02-04T15:16:59;7.67;;;2.80;;
7047;SDS011;3565;53.254;10.352;2024-02-04T15:19:29;8.50;;;3.20;;
7047;SDS011;3565;53.254;10.352;2024-02-04T15:22:01;9.00;;;2.67;;
7047;SDS011;3565;53.254;10.352;2024-02-04T15:27:07;5.20;;;2.30;;
7047;SDS011;3565;53.254;10.352;2024-02-04T15:29:38;9.27;;;2.40;;
7047;SDS011;3565;53.254;10.352;2024-02-04T15:34:47;5.47;;;2.93;;
7047;SDS011;3565;53.254;10.352;2024-02-04T15:37:17;6.93;;;2.87;;
7047;SDS011;3565;53.254;10.352;2024-02-04T15:39:48;4.87;;;2.37;;
7047;SDS011;3565;53.254;10.352;2024-02-04T15:42:16;10.90;;;3.20;;
7047;SDS011;3565;53.254;10.352;2024-02-04T15:44:45;7.73;;;2.97;;
7047;SDS011;3565;53.254;10.352;2024-02-04T15:47:24;5.63;;;2.47;;
7047;SDS011;3565;53.254;10.352;2024-02-04T15:49:57;6.73;;;2.60;;
7047;SDS011;3565;53.254;10.352;2024-02-04T15:52:27;7.60;;;2.53;;
7047;SDS011;3565;53.254;10.352;2024-02-04T15:57:36;8.03;;;2.93;;
7047;SDS011;3565;53.254;10.352;2024-02-04T16:00:08;7.03;;;3.77;;
7047;SDS011;3565;53.254;10.352;2024-02-04T16:05:20;14.47;;;3.27;;
7047;SDS011;3565;53.254;10.352;2024-02-04T16:07:51;8.10;;;3.00;;
7047;SDS011;3565;53.254;10.352;2024-02-04T16:10:21;5.27;;;2.63;;
7047;SDS011;3565;53.254;10.352;2024-02-04T16:12:53;8.97;;;2.63;;
7047;SDS011;3565;53.254;10.352;2024-02-04T16:18:06;9.93;;;3.17;;
7047;SDS011;3565;53.254;10.352;2024-02-04T16:20:36;10.60;;;2.60;;
7047;SDS011;3565;53.254;10.352;2024-02-04T16:23:14;11.60;;;3.30;;
7047;SDS011;3565;53.254;10.352;2024-02-04T16:25:45;13.63;;;3.60;;
7047;SDS011;3565;53.254;10.352;2024-02-04T16:28:14;6.07;;;3.30;;
7047;SDS011;3565;53.254;10.352;2024-02-04T16:33:24;10.97;;;3.20;;
7047;SDS011;3565;53.254;10.352;2024-02-04T16:35:53;6.17;;;2.97;;
7047;SDS011;3565;53.254;10.352;2024-02-04T16:38:24;10.53;;;3.10;;
7047;SDS011;3565;53.254;10.352;2024-02-04T16:40:54;9.83;;;3.30;;
7047;SDS011;3565;53.254;10.352;2024-02-04T16:46:00;9.03;;;3.00;;
7047;SDS011;3565;53.254;10.352;2024-02-04T16:48:29;7.17;;;3.40;;
7047;SDS011;3565;53.254;10.352;2024-02-04T16:53:35;12.70;;;3.40;;
7047;SDS011;3565;53.254;10.352;2024-02-04T16:56:05;8.10;;;3.17;;
7047;SDS011;3565;53.254;10.352;2024-02-04T16:58:34;8.17;;;3.47;;
7047;SDS011;3565;53.254;10.352;2024-02-04T17:01:04;5.80;;;2.80;;
7047;SDS011;3565;53.254;10.352;2024-02-04T17:06:13;7.97;;;3.40;;
7047;SDS011;3565;53.254;10.352;2024-02-04T17:08:43;8.10;;;4.00;;
7047;SDS011;3565;53.254;10.352;2024-02-04T17:11:13;5.23;;;2.80;;
7047;SDS011;3565;53.254;10.352;2024-02-04T17:16:26;7.10;;;3.00;;
7047;SDS011;3565;53.254;10.352;2024-02-04T17:19:03;9.13;;;3.17;;
7047;SDS011;3565;53.254;10.352;2024-02-04T17:21:42;5.83;;;2.97;;
7047;SDS011;3565;53.254;10.352;2024-02-04T17:26:54;9.57;;;3.00;;
7047;SDS011;3565;53.254;10.352;2024-02-04T17:29:24;5.93;;;3.17;;
7047;SDS011;3565;53.254;10.352;2024-02-04T17:34:33;11.23;;;3.27;;
7047;SDS011;3565;53.254;10.352;2024-02-04T17:37:03;7.20;;;3.03;;
7047;SDS011;3565;53.254;10.352;2024-02-04T17:39:33;7.27;;;3.20;;
7047;SDS011;3565;53.254;10.352;2024-02-04T17:42:04;8.10;;;3.60;;
7047;SDS011;3565;53.254;10.352;2024-02-04T17:44:35;6.43;;;3.27;;
7047;SDS011;3565;53.254;10.352;2024-02-04T17:47:13;9.37;;;3.63;;
7047;SDS011;3565;53.254;10.352;2024-02-04T17:49:42;5.23;;;3.30;;
7047;SDS011;3565;53.254;10.352;2024-02-04T17:54:48;6.20;;;3.20;;
7047;SDS011;3565;53.254;10.352;2024-02-04T17:57:20;4.10;;;3.00;;
7047;SDS011;3565;53.254;10.352;2024-02-04T17:59:49;7.30;;;3.63;;
7047;SDS011;3565;53.254;10.352;2024-02-04T18:04:58;5.77;;;3.30;;
7047;SDS011;3565;53.254;10.352;2024-02-04T18:07:27;5.03;;;2.80;;
7047;SDS011;3565;53.254;10.352;2024-02-04T18:09:56;6.73;;;3.03;;
7047;SDS011;3565;53.254;10.352;2024-02-04T18:15:04;3.77;;;3.20;;
7047;SDS011;3565;53.254;10.352;2024-02-04T18:17:34;5.97;;;2.87;;
7047;SDS011;3565;53.254;10.352;2024-02-04T18:20:13;4.57;;;3.03;;
7047;SDS011;3565;53.254;10.352;2024-02-04T18:25:20;7.70;;;2.53;;
7047;SDS011;3565;53.254;10.352;2024-02-04T18:27:49;5.50;;;2.47;;
7047;SDS011;3565;53.254;10.352;2024-02-04T18:30:18;5.23;;;2.23;;
7047;SDS011;3565;53.254;10.352;2024-02-04T18:32:49;3.13;;;2.23;;
7047;SDS011;3565;53.254;10.352;2024-02-04T18:35:18;9.83;;;2.53;;
7047;SDS011;3565;53.254;10.352;2024-02-04T18:37:56;3.63;;;2.80;;
7047;SDS011;3565;53.254;10.352;2024-02-04T18:40:25;5.97;;;2.63;;
7047;SDS011;3565;53.254;10.352;2024-02-04T18:43:05;6.30;;;3.00;;
7047;SDS011;3565;53.254;10.352;2024-02-04T18:45:34;5.37;;;2.97;;
7047;SDS011;3565;53.254;10.352;2024-02-04T18:48:04;6.37;;;2.90;;
7047;SDS011;3565;53.254;10.352;2024-02-04T18:50:33;5.33;;;2.90;;
7047;SDS011;3565;53.254;10.352;2024-02-04T18:53:02;7.20;;;3.10;;
7047;SDS011;3565;53.254;10.352;2024-02-04T18:55:32;5.47;;;2.80;;
7047;SDS011;3565;53.254;10.352;2024-02-04T18:58:04;5.30;;;3.30;;
7047;SDS011;3565;53.254;10.352;2024-02-04T19:03:11;4.27;;;2.90;;
7047;SDS011;3565;53.254;10.352;2024-02-04T19:05:40;6.83;;;3.40;;
7047;SDS011;3565;53.254;10.352;2024-02-04T19:08:09;4.37;;;3.20;;
7047;SDS011;3565;53.254;10.352;2024-02-04T19:10:39;5.53;;;3.17;;
7047;SDS011;3565;53.254;10.352;2024-02-04T19:13:09;4.03;;;2.97;;
7047;SDS011;3565;53.254;10.352;2024-02-04T19:18:16;4.90;;;3.10;;
7047;SDS011;3565;53.254;10.352;2024-02-04T19:20:45;4.63;;;2.80;;
7047;SDS011;3565;53.254;10.352;2024-02-04T19:23:14;7.60;;;3.30;;
7047;SDS011;3565;53.254;10.352;2024-02-04T19:28:21;5.33;;;2.60;;
7047;SDS011;3565;53.254;10.352;2024-02-04T19:30:50;5.23;;;2.90;;
7047;SDS011;3565;53.254;10.352;2024-02-04T19:35:56;2.97;;;2.47;;
7047;SDS011;3565;53.254;10.352;2024-02-04T19:38:25;4.47;;;2.30;;
7047;SDS011;3565;53.254;10.352;2024-02-04T19:40:54;5.10;;;2.63;;
7047;SDS011;3565;53.254;10.352;2024-02-04T19:46:01;5.43;;;2.70;;